GRZ532 Details

Departure: Juneau International Airport (PAJN)
Arrival: Ted Stevens Anchorage International Airport (PANC) at N/A
Route: CHLKT1 ALATY JOH WITTI4
Notes:


Current Weather Information
PAJN 251153Z 07005KT 10SM -RA BKN029 BKN036 OVC050 12/11 A2999 RMK AO2 SLP157 PCPN INTMT AND VRY LGT P0000 60025 70061 T01170106 10122 20111 53018
PANC 251153Z 20003KT 4SM FU OVC080 12/08 A2986 RMK AO2 SLP111 T01170078 10144 20100 51010